Time;durP1;ratioP1;P1;durP2;ratioP2;P2;SDS_P1;SDS_P2;PMS_P1;PMS_P2;Temp;Humidity;BMP_temperature;BMP_pressure;BME280_temperature;BME280_humidity;BME280_pressure;Samples;Min_cycle;Max_cycle;Signal;HPM_P1;HPM_P2
2022/02/22 00:00:07;;;;;;;4.32;1.05;;;6.40;92.90;;;;;;4993990;28;20079;-71
2022/02/22 00:02:37;;;;;;;7.88;2.85;;;6.40;92.90;;;;;;4999598;28;20042;-69
2022/02/22 00:05:04;;;;;;;7.97;1.50;;;6.50;92.90;;;;;;4997100;28;20033;-69
2022/02/22 00:07:29;;;;;;;4.93;1.85;;;6.60;92.80;;;;;;4998311;28;20042;-68
2022/02/22 00:09:56;;;;;;;5.20;1.20;;;6.60;92.60;;;;;;4991439;28;20041;-71
2022/02/22 00:12:22;;;;;;;8.70;1.45;;;6.60;92.80;;;;;;4996291;28;20133;-72
2022/02/22 00:14:48;;;;;;;10.02;1.95;;;6.60;93.00;;;;;;4995525;28;20034;-71
2022/02/22 00:17:14;;;;;;;7.88;1.85;;;6.60;93.00;;;;;;4995778;28;20032;-68
2022/02/22 00:19:40;;;;;;;5.85;1.30;;;6.50;93.00;;;;;;4995283;28;20030;-71
2022/02/22 00:22:06;;;;;;;7.38;1.00;;;6.50;93.20;;;;;;4991990;28;20034;-71
2022/02/22 00:24:32;;;;;;;8.00;1.33;;;6.50;93.20;;;;;;4997936;28;20146;-71
2022/02/22 00:26:59;;;;;;;12.70;1.40;;;6.60;93.20;;;;;;4997590;28;20756;-71
2022/02/22 00:29:24;;;;;;;8.13;0.98;;;6.70;93.10;;;;;;4996741;28;20033;-71
2022/02/22 00:31:50;;;;;;;4.93;1.40;;;6.70;93.30;;;;;;4990101;28;20379;-68
2022/02/22 00:34:16;;;;;;;7.85;1.83;;;6.80;93.10;;;;;;4994660;28;20442;-69
2022/02/22 00:36:44;;;;;;;7.25;1.52;;;6.80;93.00;;;;;;4994929;28;20037;-69
2022/02/22 00:39:10;;;;;;;10.05;1.73;;;6.70;92.90;;;;;;4994871;28;20022;-69
2022/02/22 00:41:37;;;;;;;8.65;1.48;;;6.80;93.00;;;;;;4991062;28;20045;-69
2022/02/22 00:44:03;;;;;;;9.88;1.65;;;6.80;92.80;;;;;;4994510;28;20030;-69
2022/02/22 00:46:29;;;;;;;8.75;1.55;;;6.90;92.90;;;;;;5001444;28;20040;-69
2022/02/22 00:48:55;;;;;;;4.05;1.60;;;6.90;92.80;;;;;;4996379;28;20034;-69
2022/02/22 00:51:21;;;;;;;6.25;0.85;;;6.90;92.80;;;;;;4992405;28;20029;-71
2022/02/22 00:53:47;;;;;;;5.72;1.10;;;6.90;92.80;;;;;;4988566;28;20046;-69
2022/02/22 00:56:13;;;;;;;7.85;1.20;;;7.00;92.70;;;;;;4998188;28;20040;-69
2022/02/22 00:58:39;;;;;;;6.50;1.20;;;7.00;92.60;;;;;;5000087;28;20103;-68
2022/02/22 01:01:05;;;;;;;5.53;1.63;;;7.00;92.70;;;;;;4994433;28;20030;-71
2022/02/22 01:03:31;;;;;;;6.68;1.20;;;7.00;92.70;;;;;;4992692;28;20088;-71
2022/02/22 01:05:56;;;;;;;6.28;1.30;;;6.90;92.70;;;;;;4998532;28;20044;-71
2022/02/22 01:08:22;;;;;;;9.20;1.23;;;6.90;92.70;;;;;;4998537;28;20057;-71
2022/02/22 01:10:48;;;;;;;6.38;1.20;;;6.90;92.80;;;;;;4994620;28;20145;-71
2022/02/22 01:13:14;;;;;;;5.35;1.13;;;6.90;92.70;;;;;;4992899;28;20077;-71
2022/02/22 01:15:40;;;;;;;5.45;1.45;;;6.90;92.70;;;;;;4988445;28;20041;-71
2022/02/22 01:18:06;;;;;;;5.70;1.02;;;6.90;92.60;;;;;;4998197;28;20361;-71
2022/02/22 01:20:32;;;;;;;6.45;0.82;;;6.90;92.50;;;;;;4996740;28;20613;-71
2022/02/22 01:22:58;;;;;;;5.05;1.02;;;6.90;92.50;;;;;;4994193;28;20326;-71
2022/02/22 01:25:26;;;;;;;10.15;1.10;;;7.00;92.60;;;;;;4991680;28;20526;-71
2022/02/22 01:27:53;;;;;;;6.28;0.98;;;7.00;92.40;;;;;;4991540;28;20034;-71
2022/02/22 01:30:19;;;;;;;6.35;0.93;;;7.00;92.50;;;;;;4997206;28;20817;-71
2022/02/22 01:32:45;;;;;;;6.82;0.85;;;7.00;92.40;;;;;;4993421;28;20037;-70
2022/02/22 01:35:11;;;;;;;4.70;1.10;;;7.00;92.40;;;;;;4992654;28;20540;-70
2022/02/22 01:37:36;;;;;;;7.20;1.27;;;7.10;92.20;;;;;;4986963;28;20101;-70
2022/02/22 01:40:04;;;;;;;4.93;1.48;;;7.10;92.10;;;;;;4997454;28;20042;-70
2022/02/22 01:42:30;;;;;;;1.95;0.52;;;7.20;92.00;;;;;;4995167;28;20034;-70
2022/02/22 01:44:55;;;;;;;10.43;1.42;;;7.20;91.90;;;;;;4993881;28;20026;-70
2022/02/22 01:47:21;;;;;;;6.32;0.93;;;7.20;91.80;;;;;;4995385;28;20033;-70
2022/02/22 01:49:48;;;;;;;8.43;1.10;;;7.10;91.60;;;;;;4996541;28;20048;-71
2022/02/22 01:52:14;;;;;;;6.28;0.85;;;7.10;91.60;;;;;;5001479;28;20057;-71
2022/02/22 01:54:40;;;;;;;6.07;1.25;;;7.10;91.60;;;;;;4998586;28;20069;-70
2022/02/22 01:57:06;;;;;;;6.47;0.80;;;7.20;91.60;;;;;;4998806;28;20037;-71
2022/02/22 01:59:32;;;;;;;7.15;1.48;;;7.10;91.50;;;;;;4993793;28;20042;-71
2022/02/22 02:01:58;;;;;;;5.88;1.45;;;7.00;91.40;;;;;;5001249;28;20030;-71
2022/02/22 02:04:29;;;;;;;7.53;0.90;;;6.90;91.60;;;;;;5000367;28;20160;-70
2022/02/22 02:06:59;;;;;;;10.43;1.23;;;6.80;91.80;;;;;;4998552;28;20044;-70
2022/02/22 02:09:26;;;;;;;7.22;1.40;;;6.80;91.80;;;;;;4995827;28;20081;-70
2022/02/22 02:12:00;;;;;;;9.20;1.17;;;6.90;91.80;;;;;;4996081;28;20034;-71
2022/02/22 02:14:27;;;;;;;9.00;1.40;;;6.80;91.80;;;;;;5005631;28;20055;-70
2022/02/22 02:16:55;;;;;;;9.77;1.67;;;6.80;91.80;;;;;;4998486;28;20458;-71
2022/02/22 02:19:21;;;;;;;7.10;1.25;;;6.80;91.90;;;;;;4997330;28;20037;-70
2022/02/22 02:21:48;;;;;;;6.03;1.17;;;6.70;92.00;;;;;;4995576;28;20040;-71
2022/02/22 02:24:22;;;;;;;4.68;0.80;;;6.60;92.20;;;;;;5000580;28;20026;-70
2022/02/22 02:26:49;;;;;;;5.00;0.70;;;6.60;92.10;;;;;;4996869;28;20030;-70
2022/02/22 02:29:18;;;;;;;5.72;0.80;;;6.60;92.20;;;;;;4996988;28;20042;-70
2022/02/22 02:31:45;;;;;;;6.75;1.10;;;6.60;92.30;;;;;;4991850;28;20572;-70
2022/02/22 02:34:14;;;;;;;7.18;1.08;;;6.60;92.50;;;;;;5004223;28;20030;-71
2022/02/22 02:36:43;;;;;;;1.75;0.88;;;6.60;92.60;;;;;;4997548;28;20034;-71
2022/02/22 02:39:11;;;;;;;9.60;1.17;;;6.70;92.90;;;;;;4996142;28;20107;-70
2022/02/22 02:41:37;;;;;;;6.43;1.02;;;6.70;93.00;;;;;;4993744;28;20038;-71
2022/02/22 02:44:06;;;;;;;7.72;1.15;;;6.70;93.20;;;;;;5004187;28;20026;-70
2022/02/22 02:46:33;;;;;;;7.07;1.08;;;6.80;93.20;;;;;;4997230;28;20033;-71
2022/02/22 02:48:59;;;;;;;6.28;0.90;;;6.80;93.10;;;;;;4996673;28;20042;-70
2022/02/22 02:51:26;;;;;;;4.38;0.98;;;6.80;93.20;;;;;;4994674;28;20034;-71
2022/02/22 02:53:53;;;;;;;6.20;1.27;;;6.90;93.20;;;;;;4991461;28;20030;-70
2022/02/22 02:56:25;;;;;;;6.80;1.35;;;6.90;93.10;;;;;;5001071;28;20512;-70
2022/02/22 02:58:53;;;;;;;5.05;1.17;;;7.00;93.10;;;;;;5002114;28;20034;-71
2022/02/22 03:01:22;;;;;;;7.95;1.17;;;7.00;93.10;;;;;;4998234;28;20040;-69
2022/02/22 03:03:48;;;;;;;6.30;1.00;;;6.90;93.20;;;;;;4992393;28;20030;-70
2022/02/22 03:06:13;;;;;;;4.53;0.90;;;6.90;93.40;;;;;;5008458;28;20044;-71
2022/02/22 03:08:39;;;;;;;9.13;1.23;;;6.80;93.70;;;;;;5000765;28;20049;-71
2022/02/22 03:11:05;;;;;;;6.88;1.08;;;6.80;93.80;;;;;;4997076;28;20681;-71
2022/02/22 03:13:31;;;;;;;7.57;1.35;;;6.80;93.90;;;;;;4993287;28;20037;-71
2022/02/22 03:15:57;;;;;;;6.18;0.98;;;6.80;94.00;;;;;;4993863;28;20442;-71
2022/02/22 03:18:23;;;;;;;4.80;1.10;;;6.80;93.80;;;;;;5006743;28;20037;-70
2022/02/22 03:20:48;;;;;;;4.40;0.80;;;6.80;93.80;;;;;;4996368;28;20041;-71
2022/02/22 03:23:14;;;;;;;6.03;1.30;;;6.80;93.40;;;;;;4995751;28;20141;-71
2022/02/22 03:25:40;;;;;;;10.65;1.30;;;6.70;93.20;;;;;;4991058;28;20033;-71
2022/02/22 03:28:08;;;;;;;11.90;1.05;;;6.70;93.00;;;;;;4999160;28;20483;-71
2022/02/22 03:30:34;;;;;;;11.68;1.25;;;6.70;93.00;;;;;;4998416;28;20574;-71
2022/02/22 03:33:00;;;;;;;14.90;1.60;;;6.70;92.70;;;;;;4996729;28;20860;-71
2022/02/22 03:35:27;;;;;;;11.23;1.73;;;6.70;92.60;;;;;;4991391;28;20488;-71
2022/02/22 03:37:53;;;;;;;11.90;1.63;;;6.80;92.30;;;;;;5002491;28;20042;-71
2022/02/22 03:40:19;;;;;;;11.75;1.77;;;6.80;92.10;;;;;;5001208;28;20552;-71
2022/02/22 03:42:46;;;;;;;13.38;2.22;;;6.80;92.20;;;;;;4997384;28;21429;-71
2022/02/22 03:45:13;;;;;;;11.70;1.70;;;6.80;91.80;;;;;;4994765;28;20034;-71
2022/02/22 03:47:41;;;;;;;15.90;2.05;;;6.80;91.80;;;;;;4989964;28;20038;-71
2022/02/22 03:50:08;;;;;;;14.75;2.45;;;6.80;91.20;;;;;;4998384;28;20833;-71
2022/02/22 03:52:34;;;;;;;16.00;2.55;;;6.80;90.60;;;;;;4997175;28;20048;-71
2022/02/22 03:55:00;;;;;;;12.90;1.88;;;6.70;90.80;;;;;;4994428;28;20038;-71
2022/02/22 03:57:26;;;;;;;14.27;2.80;;;6.70;90.40;;;;;;4992551;28;20038;-71
2022/02/22 03:59:52;;;;;;;16.65;2.33;;;6.70;90.50;;;;;;4994030;28;20838;-71
2022/02/22 04:02:18;;;;;;;12.55;2.60;;;6.70;90.50;;;;;;5003433;28;20021;-71
2022/02/22 04:04:43;;;;;;;11.10;1.77;;;6.70;89.80;;;;;;4995767;28;20030;-70
2022/02/22 04:07:09;;;;;;;13.98;1.80;;;6.60;90.10;;;;;;4993988;28;20025;-71
2022/02/22 04:09:35;;;;;;;12.63;1.77;;;6.70;90.10;;;;;;4989224;28;20518;-71
2022/02/22 04:12:01;;;;;;;16.08;3.28;;;6.70;90.10;;;;;;5001836;28;20030;-71
2022/02/22 04:14:26;;;;;;;18.10;2.58;;;6.70;89.70;;;;;;4997189;28;20056;-71
2022/02/22 04:16:52;;;;;;;11.05;1.92;;;6.60;88.40;;;;;;4994665;28;20145;-71
2022/02/22 04:19:18;;;;;;;17.17;2.28;;;6.50;88.10;;;;;;4992737;28;20041;-71
2022/02/22 04:21:43;;;;;;;14.43;2.53;;;6.40;88.60;;;;;;4995646;28;20068;-71
2022/02/22 04:24:09;;;;;;;12.68;1.77;;;6.10;88.90;;;;;;4997313;28;20037;-70
2022/02/22 04:26:35;;;;;;;20.13;2.55;;;6.00;89.80;;;;;;4994149;28;20520;-71
2022/02/22 04:29:01;;;;;;;15.93;2.25;;;6.00;90.20;;;;;;4992642;28;20136;-70
2022/02/22 04:31:27;;;;;;;15.07;1.45;;;6.00;89.90;;;;;;4991107;28;20497;-70
2022/02/22 04:33:53;;;;;;;12.45;1.88;;;6.00;90.10;;;;;;4995758;28;20144;-71
2022/02/22 04:36:19;;;;;;;18.75;2.90;;;6.00;90.20;;;;;;4994932;28;20038;-70
2022/02/22 04:38:45;;;;;;;9.57;2.28;;;5.90;89.80;;;;;;4992163;28;20038;-71
2022/02/22 04:41:11;;;;;;;18.33;1.95;;;5.90;89.70;;;;;;4992656;28;20072;-70
2022/02/22 04:43:37;;;;;;;17.73;2.63;;;5.90;89.90;;;;;;5001143;28;20026;-70
2022/02/22 04:46:02;;;;;;;20.90;2.88;;;5.90;89.80;;;;;;4996145;28;20844;-70
2022/02/22 04:48:28;;;;;;;17.55;2.83;;;5.90;88.80;;;;;;4994209;28;20037;-70
2022/02/22 04:50:54;;;;;;;15.70;2.30;;;5.90;88.30;;;;;;4991521;28;20041;-70
2022/02/22 04:53:20;;;;;;;14.75;3.17;;;5.90;88.00;;;;;;4992152;28;20029;-70
2022/02/22 04:55:45;;;;;;;15.77;2.60;;;5.90;87.70;;;;;;5000184;28;20176;-70
2022/02/22 04:58:11;;;;;;;22.35;3.03;;;5.80;87.30;;;;;;4998240;28;20056;-70
2022/02/22 05:00:37;;;;;;;19.98;2.40;;;5.80;87.80;;;;;;4992190;28;20038;-70
2022/02/22 05:03:03;;;;;;;17.40;2.40;;;5.80;87.80;;;;;;4992096;28;20030;-70
2022/02/22 05:05:28;;;;;;;19.15;2.40;;;5.80;87.60;;;;;;4994547;28;20077;-70
2022/02/22 05:07:54;;;;;;;17.30;4.00;;;5.70;87.70;;;;;;4995890;28;20042;-70
2022/02/22 05:10:20;;;;;;;15.07;1.92;;;5.60;88.30;;;;;;4995934;28;20066;-70
2022/02/22 05:12:46;;;;;;;14.95;2.03;;;5.70;88.40;;;;;;4992963;28;20060;-70
2022/02/22 05:15:12;;;;;;;12.40;2.10;;;5.70;88.00;;;;;;4988561;28;20445;-70
2022/02/22 05:17:38;;;;;;;17.95;2.45;;;5.80;88.00;;;;;;4993678;28;20534;-70
2022/02/22 05:20:07;;;;;;;14.30;2.55;;;5.90;88.10;;;;;;4987947;28;20073;-71
2022/02/22 05:22:44;;;;;;;18.17;2.40;;;6.00;86.90;;;;;;4991573;28;20096;-70
2022/02/22 05:25:12;;;;;;;20.42;2.53;;;6.00;87.30;;;;;;4990940;28;20133;-74
2022/02/22 05:27:38;;;;;;;18.35;2.38;;;6.10;87.30;;;;;;4988135;28;20034;-74
2022/02/22 05:30:05;;;;;;;24.30;2.67;;;6.10;86.90;;;;;;4992234;28;20045;-73
2022/02/22 05:32:32;;;;;;;22.52;2.72;;;6.10;87.00;;;;;;4994745;28;20045;-74
2022/02/22 05:34:58;;;;;;;13.68;2.33;;;6.00;87.10;;;;;;4995198;28;20044;-74
2022/02/22 05:37:25;;;;;;;21.25;3.25;;;5.90;87.30;;;;;;5000202;28;20045;-74
2022/02/22 05:39:51;;;;;;;21.58;2.47;;;5.80;87.90;;;;;;4996603;28;20060;-74
2022/02/22 05:42:17;;;;;;;21.73;3.28;;;5.70;88.40;;;;;;4991224;28;20030;-74
2022/02/22 05:44:43;;;;;;;17.10;2.78;;;5.70;88.80;;;;;;4999071;28;20081;-74
2022/02/22 05:47:09;;;;;;;22.50;2.50;;;5.70;88.80;;;;;;4997427;28;20048;-74
2022/02/22 05:49:34;;;;;;;24.05;2.92;;;5.80;88.70;;;;;;4997166;28;20038;-74
2022/02/22 05:52:00;;;;;;;22.90;2.58;;;5.80;87.80;;;;;;4991462;28;20066;-74
2022/02/22 05:54:26;;;;;;;15.95;3.47;;;5.90;88.40;;;;;;4996628;28;20459;-74
2022/02/22 05:56:51;;;;;;;14.50;2.75;;;5.90;88.80;;;;;;4991913;28;20061;-70
2022/02/22 05:59:17;;;;;;;9.93;2.00;;;5.90;88.20;;;;;;4996446;28;20033;-71
2022/02/22 06:01:43;;;;;;;13.00;2.75;;;6.00;87.40;;;;;;4992789;28;20387;-70
2022/02/22 06:04:11;;;;;;;17.10;2.30;;;6.00;87.40;;;;;;4991417;28;20041;-70
2022/02/22 06:06:38;;;;;;;16.92;2.65;;;6.10;87.20;;;;;;4991578;28;20038;-70
2022/02/22 06:09:04;;;;;;;14.70;2.30;;;6.10;87.00;;;;;;4998044;28;20038;-70
2022/02/22 06:11:29;;;;;;;16.15;2.38;;;6.10;87.00;;;;;;4999468;28;20033;-70
2022/02/22 06:13:55;;;;;;;18.77;2.42;;;6.10;87.10;;;;;;4998999;28;20909;-70
2022/02/22 06:16:21;;;;;;;17.88;2.13;;;6.10;86.50;;;;;;4993163;28;20034;-70
2022/02/22 06:18:46;;;;;;;17.10;2.20;;;6.10;86.90;;;;;;4998327;28;20100;-70
2022/02/22 06:21:12;;;;;;;16.27;2.05;;;6.10;87.00;;;;;;4994574;28;20060;-70
2022/02/22 06:23:38;;;;;;;15.10;2.63;;;6.10;87.40;;;;;;4991899;28;20706;-70
2022/02/22 06:26:03;;;;;;;17.13;2.78;;;6.10;87.00;;;;;;4993848;28;20053;-70
2022/02/22 06:28:31;;;;;;;16.95;3.13;;;6.10;86.70;;;;;;4997076;28;20420;-70
2022/02/22 06:30:56;;;;;;;17.98;2.72;;;6.10;86.90;;;;;;4995076;28;20042;-70
2022/02/22 06:33:22;;;;;;;22.80;3.55;;;6.00;87.10;;;;;;4994033;28;20399;-71
2022/02/22 06:35:48;;;;;;;19.95;4.25;;;6.00;87.20;;;;;;4996123;28;20918;-70
2022/02/22 06:38:13;;;;;;;16.77;2.85;;;5.90;87.20;;;;;;4995623;28;20112;-70
2022/02/22 06:40:39;;;;;;;21.33;2.38;;;5.80;88.00;;;;;;4996881;28;20580;-70
2022/02/22 06:43:05;;;;;;;19.20;2.67;;;5.70;88.60;;;;;;5003220;28;20073;-70
2022/02/22 06:45:31;;;;;;;15.85;2.80;;;5.60;88.90;;;;;;4994470;28;20026;-70
2022/02/22 06:47:57;;;;;;;13.13;2.85;;;5.70;88.90;;;;;;4990837;28;20122;-69
2022/02/22 06:50:25;;;;;;;20.83;2.90;;;5.80;88.10;;;;;;4990453;28;20049;-70
2022/02/22 06:52:52;;;;;;;18.15;3.03;;;6.00;87.50;;;;;;4993332;28;20120;-70
2022/02/22 06:55:18;;;;;;;15.98;2.92;;;6.20;87.30;;;;;;4994964;28;20034;-70
2022/02/22 06:57:54;;;;;;;13.50;2.50;;;6.20;86.40;;;;;;5001106;28;20028;-70
2022/02/22 07:00:21;;;;;;;13.98;3.58;;;6.20;85.80;;;;;;4998162;28;20042;-70
2022/02/22 07:02:48;;;;;;;13.75;1.88;;;6.30;85.70;;;;;;4993774;28;20049;-70
2022/02/22 07:05:14;;;;;;;12.27;2.22;;;6.30;85.20;;;;;;4997130;28;20022;-70
2022/02/22 07:07:39;;;;;;;15.23;2.55;;;6.20;84.90;;;;;;4991640;28;20065;-70
2022/02/22 07:10:07;;;;;;;20.20;2.50;;;6.20;85.50;;;;;;4992292;28;20026;-70
2022/02/22 07:12:32;;;;;;;14.10;2.33;;;6.20;85.50;;;;;;4994786;28;20040;-70
2022/02/22 07:14:58;;;;;;;16.92;2.08;;;6.20;85.10;;;;;;4995571;28;20069;-71
2022/02/22 07:17:24;;;;;;;12.48;1.90;;;6.30;85.10;;;;;;4996696;28;20446;-71
2022/02/22 07:19:51;;;;;;;9.57;1.90;;;6.50;84.60;;;;;;4994279;28;20133;-70
2022/02/22 07:22:17;;;;;;;16.27;2.05;;;6.60;83.90;;;;;;4998388;28;20042;-70
2022/02/22 07:24:43;;;;;;;18.95;2.17;;;6.60;84.10;;;;;;4992652;28;20101;-70
2022/02/22 07:27:09;;;;;;;10.63;1.85;;;6.60;84.00;;;;;;4996655;28;20823;-70
2022/02/22 07:29:35;;;;;;;17.70;2.00;;;6.40;84.10;;;;;;4998845;28;20065;-74
2022/02/22 07:32:01;;;;;;;9.25;1.83;;;6.20;85.00;;;;;;4998210;28;20445;-73
2022/02/22 07:34:26;;;;;;;10.60;2.03;;;6.20;85.10;;;;;;4996659;28;20117;-74
2022/02/22 07:36:52;;;;;;;13.90;2.00;;;6.20;85.80;;;;;;4996629;28;20508;-73
2022/02/22 07:39:18;;;;;;;14.18;1.85;;;6.30;85.50;;;;;;4992972;28;20084;-73
2022/02/22 07:41:44;;;;;;;9.50;1.88;;;6.40;85.50;;;;;;4992896;28;20037;-73
2022/02/22 07:44:09;;;;;;;19.73;2.53;;;6.60;85.30;;;;;;4998540;28;20842;-73
2022/02/22 07:46:35;;;;;;;12.48;2.67;;;7.20;83.90;;;;;;4992449;28;20494;-74
2022/02/22 07:49:01;;;;;;;21.98;2.08;;;7.60;81.20;;;;;;4993020;28;20065;-74
2022/02/22 07:51:26;;;;;;;11.25;1.83;;;7.70;79.70;;;;;;4994342;28;20080;-74
2022/02/22 07:53:52;;;;;;;8.10;1.58;;;7.80;79.60;;;;;;4994083;28;20068;-74
2022/02/22 07:56:18;;;;;;;11.85;2.55;;;7.80;79.70;;;;;;4996287;28;20033;-74
2022/02/22 07:58:44;;;;;;;8.13;1.80;;;7.70;79.10;;;;;;4985411;28;20070;-74
2022/02/22 08:01:11;;;;;;;9.93;1.73;;;7.60;79.60;;;;;;4993700;28;20030;-74
2022/02/22 08:03:37;;;;;;;12.52;2.28;;;7.60;79.70;;;;;;4991373;28;20033;-73
2022/02/22 08:06:02;;;;;;;12.60;2.58;;;7.70;79.80;;;;;;4994260;28;20057;-74
2022/02/22 08:08:28;;;;;;;7.93;1.90;;;8.10;78.30;;;;;;4995425;28;20132;-76
2022/02/22 08:10:54;;;;;;;10.05;1.48;;;8.90;77.20;;;;;;4990874;28;20938;-76
2022/02/22 08:13:20;;;;;;;11.95;2.78;;;10.20;71.90;;;;;;4993073;28;20080;-76
2022/02/22 08:15:46;;;;;;;17.55;2.47;;;10.70;68.80;;;;;;4986594;28;20030;-74
2022/02/22 08:18:11;;;;;;;9.07;1.70;;;10.20;68.40;;;;;;4987734;28;20030;-74
2022/02/22 08:20:39;;;;;;;12.15;1.77;;;9.70;71.00;;;;;;4992888;28;20129;-73
2022/02/22 08:23:05;;;;;;;16.38;3.40;;;9.30;73.60;;;;;;4983348;28;20053;-72
2022/02/22 08:25:31;;;;;;;14.68;2.00;;;8.80;76.70;;;;;;4996932;28;20803;-76
2022/02/22 08:27:56;;;;;;;17.73;2.67;;;8.40;79.20;;;;;;4999032;28;20038;-77
2022/02/22 08:30:22;;;;;;;9.35;2.40;;;8.00;81.40;;;;;;4994797;28;20054;-77
2022/02/22 08:32:48;;;;;;;15.20;3.15;;;7.70;83.70;;;;;;4992684;28;20037;-73
2022/02/22 08:35:13;;;;;;;11.57;2.28;;;7.60;85.00;;;;;;4994944;28;20034;-76
2022/02/22 08:37:39;;;;;;;11.68;1.75;;;7.40;85.80;;;;;;4993823;28;20164;-75
2022/02/22 08:40:05;;;;;;;13.30;2.05;;;7.40;86.60;;;;;;4993507;28;20029;-78
2022/02/22 08:42:31;;;;;;;12.60;2.15;;;7.50;86.80;;;;;;4996280;28;20041;-77
2022/02/22 08:44:57;;;;;;;11.45;2.38;;;7.70;86.80;;;;;;4992371;28;20029;-77
2022/02/22 08:47:23;;;;;;;12.38;2.08;;;8.60;84.80;;;;;;4987445;28;20046;-77
2022/02/22 08:49:48;;;;;;;14.48;2.17;;;9.30;81.50;;;;;;4991262;28;20034;-77
2022/02/22 08:52:17;;;;;;;11.25;2.08;;;9.60;80.80;;;;;;4998338;28;20057;-77
2022/02/22 08:54:43;;;;;;;9.20;1.65;;;9.80;80.40;;;;;;5001215;28;20048;-77
2022/02/22 08:57:09;;;;;;;15.25;2.22;;;10.10;78.90;;;;;;4995260;28;20027;-77
2022/02/22 08:59:35;;;;;;;10.45;2.00;;;10.70;76.00;;;;;;4994008;28;20057;-76
2022/02/22 09:02:01;;;;;;;14.13;2.47;;;11.50;72.60;;;;;;4997611;28;20034;-76
2022/02/22 09:04:27;;;;;;;9.10;2.00;;;11.70;70.90;;;;;;4997429;28;20034;-76
2022/02/22 09:06:52;;;;;;;14.55;2.35;;;11.50;69.80;;;;;;4993421;28;20652;-75
2022/02/22 09:09:18;;;;;;;8.23;1.88;;;11.40;70.60;;;;;;4993340;28;20034;-76
2022/02/22 09:11:44;;;;;;;11.15;2.10;;;11.20;70.80;;;;;;4996881;28;20046;-76
2022/02/22 09:14:10;;;;;;;17.08;4.03;;;11.20;70.30;;;;;;4995854;28;20092;-77
2022/02/22 09:16:36;;;;;;;12.27;3.42;;;11.00;70.20;;;;;;5000348;28;20409;-76
2022/02/22 09:19:02;;;;;;;16.02;3.17;;;11.70;69.10;;;;;;4997985;28;20072;-75
2022/02/22 09:21:27;;;;;;;15.93;2.10;;;14.40;61.10;;;;;;4993568;28;20030;-76
2022/02/22 09:23:53;;;;;;;10.90;2.30;;;17.30;50.10;;;;;;4998679;28;20091;-77
2022/02/22 09:26:19;;;;;;;9.95;2.25;;;18.60;47.10;;;;;;4997200;28;20064;-77
2022/02/22 09:28:45;;;;;;;7.97;2.35;;;21.20;41.70;;;;;;4997764;28;20062;-77
2022/02/22 09:31:12;;;;;;;13.77;2.80;;;22.00;39.70;;;;;;4995945;28;20022;-77
2022/02/22 09:33:37;;;;;;;12.23;2.33;;;20.90;40.70;;;;;;4997125;28;20079;-76
2022/02/22 09:36:03;;;;;;;9.20;2.22;;;18.90;43.30;;;;;;4998489;28;20157;-77
2022/02/22 09:38:30;;;;;;;13.18;2.30;;;17.70;47.70;;;;;;5000123;28;20044;-76
2022/02/22 09:41:00;;;;;;;10.57;2.33;;;16.80;48.90;;;;;;4994107;28;20034;-77
2022/02/22 09:43:25;;;;;;;13.57;2.92;;;16.40;49.90;;;;;;4992799;28;20061;-77
2022/02/22 09:45:52;;;;;;;5.93;1.73;;;17.40;47.70;;;;;;4993165;28;20528;-77
2022/02/22 09:48:18;;;;;;;12.32;2.60;;;17.30;47.70;;;;;;4999603;28;20029;-74
2022/02/22 09:50:44;;;;;;;10.45;2.78;;;16.60;47.20;;;;;;4996307;28;20076;-76
2022/02/22 09:53:09;;;;;;;13.60;2.80;;;16.30;49.10;;;;;;4998651;28;20038;-76
2022/02/22 09:55:35;;;;;;;9.75;2.60;;;15.60;49.60;;;;;;4994048;28;20128;-75
2022/02/22 09:58:01;;;;;;;11.07;2.13;;;15.20;51.30;;;;;;4994566;28;20054;-75
2022/02/22 10:00:31;;;;;;;10.77;2.40;;;16.90;49.00;;;;;;5000294;28;20835;-75
2022/02/22 10:02:57;;;;;;;9.13;2.63;;;17.40;47.00;;;;;;4998092;28;20083;-76
2022/02/22 10:05:25;;;;;;;11.10;2.38;;;16.20;48.60;;;;;;4995487;28;20104;-75
2022/02/22 10:07:55;;;;;;;8.85;2.35;;;14.70;52.40;;;;;;4984934;28;20038;-76
2022/02/22 10:10:41;;;;;;;12.48;2.10;;;13.80;54.80;;;;;;4998471;28;20037;-76
2022/02/22 10:13:09;;;;;;;12.50;2.33;;;14.20;54.60;;;;;;4995184;28;20042;-77
2022/02/22 10:15:39;;;;;;;10.02;2.20;;;15.90;51.10;;;;;;4993721;28;20474;-77
2022/02/22 10:18:05;;;;;;;13.73;2.03;;;17.60;48.10;;;;;;4990273;28;20037;-77
2022/02/22 10:20:31;;;;;;;13.23;2.20;;;19.30;43.70;;;;;;4999850;28;20732;-77
2022/02/22 10:22:57;;;;;;;7.97;1.88;;;18.90;42.70;;;;;;5008984;28;20044;-76
2022/02/22 10:25:25;;;;;;;9.80;2.20;;;17.60;45.80;;;;;;4995690;28;20025;-75
2022/02/22 10:27:52;;;;;;;11.68;2.58;;;15.90;47.30;;;;;;4996923;28;20449;-76
2022/02/22 10:30:29;;;;;;;14.27;2.15;;;14.50;51.90;;;;;;4995127;28;20026;-75
2022/02/22 10:32:56;;;;;;;11.13;3.25;;;13.50;54.20;;;;;;4992394;28;20136;-76
2022/02/22 10:35:33;;;;;;;6.80;2.25;;;12.80;56.10;;;;;;4995724;28;20128;-76
2022/02/22 10:38:11;;;;;;;17.10;3.30;;;12.30;58.30;;;;;;4998141;28;20037;-77
2022/02/22 10:40:38;;;;;;;14.10;3.28;;;12.00;59.40;;;;;;4995325;28;20034;-76
2022/02/22 10:43:03;;;;;;;12.73;3.83;;;11.90;60.10;;;;;;4993205;28;20095;-76
2022/02/22 10:45:29;;;;;;;16.58;3.25;;;11.80;59.80;;;;;;5000403;28;20033;-75
2022/02/22 10:47:55;;;;;;;11.88;2.17;;;11.70;60.00;;;;;;4987629;28;20097;-76
2022/02/22 10:50:31;;;;;;;12.32;2.20;;;11.70;61.20;;;;;;4999606;28;20109;-73
2022/02/22 10:52:57;;;;;;;8.13;1.95;;;11.40;61.00;;;;;;4991481;28;20161;-71
2022/02/22 10:55:23;;;;;;;24.40;8.82;;;10.90;63.50;;;;;;4995717;28;20045;-71
2022/02/22 10:57:49;;;;;;;15.55;6.00;;;10.50;67.30;;;;;;4992648;28;20033;-71
2022/02/22 11:00:16;;;;;;;20.85;5.28;;;10.30;70.00;;;;;;4997509;28;20081;-68
2022/02/22 11:02:45;;;;;;;20.40;6.40;;;10.40;71.00;;;;;;4991616;28;20021;-67
2022/02/22 11:05:13;;;;;;;13.88;2.55;;;10.50;70.30;;;;;;4988397;28;20026;-66
2022/02/22 11:07:39;;;;;;;16.17;2.53;;;10.40;70.20;;;;;;5000942;28;20173;-67
2022/02/22 11:10:08;;;;;;;14.27;2.88;;;9.90;69.40;;;;;;4990626;28;20040;-68
2022/02/22 11:12:36;;;;;;;17.55;3.33;;;9.70;72.70;;;;;;4992141;28;20054;-67
2022/02/22 11:15:12;;;;;;;14.50;3.60;;;9.70;75.00;;;;;;4992648;28;20046;-76
2022/02/22 11:17:49;;;;;;;10.13;2.35;;;9.80;76.10;;;;;;4994320;28;20947;-70
2022/02/22 11:20:32;;;;;;;21.88;4.15;;;9.70;76.80;;;;;;4992244;28;20034;-69
2022/02/22 11:23:00;;;;;;;10.80;2.33;;;9.60;77.10;;;;;;4992173;28;20129;-69
2022/02/22 11:25:33;;;;;;;18.63;3.03;;;9.50;77.70;;;;;;4990651;28;20022;-70
2022/02/22 11:28:10;;;;;;;16.25;2.53;;;9.30;77.80;;;;;;4992367;28;20120;-69
2022/02/22 11:30:37;;;;;;;18.30;2.22;;;9.00;79.50;;;;;;4993623;28;20030;-69
2022/02/22 11:33:12;;;;;;;12.60;2.20;;;8.90;79.50;;;;;;4992752;28;20113;-71
2022/02/22 11:35:49;;;;;;;14.90;1.80;;;8.90;80.50;;;;;;4996520;28;20041;-70
2022/02/22 11:38:16;;;;;;;9.10;1.73;;;9.00;81.20;;;;;;4992196;28;20034;-71
2022/02/22 11:40:42;;;;;;;12.90;2.10;;;9.40;81.20;;;;;;4994488;28;20133;-71
2022/02/22 11:43:17;;;;;;;11.48;1.73;;;9.80;77.80;;;;;;4998486;28;20085;-71
2022/02/22 11:45:45;;;;;;;14.50;1.85;;;10.00;76.30;;;;;;4990570;28;20026;-72
2022/02/22 11:48:26;;;;;;;13.98;2.15;;;10.20;74.30;;;;;;4994975;28;20061;-71
2022/02/22 11:50:54;;;;;;;9.38;1.50;;;10.40;72.20;;;;;;4997600;28;20034;-72
2022/02/22 11:53:29;;;;;;;7.53;2.00;;;10.70;71.70;;;;;;4991012;28;20029;-72
2022/02/22 11:55:57;;;;;;;11.70;4.65;;;10.90;72.00;;;;;;4993600;28;20636;-72
2022/02/22 11:58:36;;;;;;;10.05;1.73;;;11.20;71.70;;;;;;4993732;28;20729;-72
2022/02/22 12:01:06;;;;;;;15.35;2.30;;;11.50;70.90;;;;;;4992881;28;20033;-73
2022/02/22 12:03:48;;;;;;;7.70;2.15;;;11.70;70.20;;;;;;4993424;28;20025;-70
2022/02/22 12:06:14;;;;;;;13.35;2.53;;;12.20;69.20;;;;;;4997791;28;20055;-71
2022/02/22 12:08:42;;;;;;;10.05;1.80;;;12.60;69.00;;;;;;4995945;28;20034;-70
2022/02/22 12:11:18;;;;;;;16.15;2.40;;;13.00;66.90;;;;;;4999395;28;20037;-70
2022/02/22 12:13:50;;;;;;;10.25;2.15;;;13.20;63.60;;;;;;4995282;28;20072;-70
2022/02/22 12:16:30;;;;;;;12.05;2.50;;;13.10;61.70;;;;;;4999593;28;20038;-75
2022/02/22 12:19:05;;;;;;;12.32;1.83;;;12.80;59.30;;;;;;4991756;28;20072;-69
2022/02/22 12:21:31;;;;;;;9.53;1.90;;;12.90;58.40;;;;;;4992765;28;20034;-69
2022/02/22 12:23:59;;;;;;;9.75;2.08;;;13.00;57.50;;;;;;4985808;28;20581;-70
2022/02/22 12:26:26;;;;;;;11.10;2.53;;;13.20;56.70;;;;;;4997106;28;20744;-71
2022/02/22 12:29:03;;;;;;;10.73;2.00;;;13.20;56.10;;;;;;4991159;28;20030;-71
2022/02/22 12:31:36;;;;;;;15.80;2.40;;;13.10;55.80;;;;;;4989386;28;20038;-68
2022/02/22 12:34:08;;;;;;;11.38;1.98;;;12.60;55.80;;;;;;4988951;28;20153;-70
2022/02/22 12:36:39;;;;;;;14.57;2.15;;;12.30;57.20;;;;;;4994679;28;20045;-70
2022/02/22 12:39:07;;;;;;;10.23;2.13;;;12.40;57.50;;;;;;4998487;28;20117;-71
2022/02/22 12:41:39;;;;;;;11.68;2.20;;;12.40;56.40;;;;;;4993047;28;20026;-71
2022/02/22 12:44:13;;;;;;;14.88;2.40;;;12.30;55.90;;;;;;4997451;28;20573;-79
2022/02/22 12:46:40;;;;;;;12.73;2.35;;;12.00;56.10;;;;;;4991020;28;20124;-72